sensor_id;sensor_type;location;lat;lon;timestamp;temperature;humidity
58339;DHT22;48278;52.704;6.536;2023-02-07T00:00:50;0.50;99.90
58339;DHT22;48278;52.704;6.536;2023-02-07T00:03:16;0.40;99.90
58339;DHT22;48278;52.704;6.536;2023-02-07T00:05:42;0.40;99.90
58339;DHT22;48278;52.704;6.536;2023-02-07T00:08:07;0.40;99.90
58339;DHT22;48278;52.704;6.536;2023-02-07T00:10:34;0.30;99.90
58339;DHT22;48278;52.704;6.536;2023-02-07T00:13:00;0.40;99.90
58339;DHT22;48278;52.704;6.536;2023-02-07T00:15:26;0.30;99.90
58339;DHT22;48278;52.704;6.536;2023-02-07T00:17:52;0.30;99.90
58339;DHT22;48278;52.704;6.536;2023-02-07T00:20:18;0.30;99.90
58339;DHT22;48278;52.704;6.536;2023-02-07T00:22:44;0.30;99.90
58339;DHT22;48278;52.704;6.536;2023-02-07T00:25:10;0.20;99.90
58339;DHT22;48278;52.704;6.536;2023-02-07T00:27:36;0.30;99.90
58339;DHT22;48278;52.704;6.536;2023-02-07T00:30:03;0.30;99.90
58339;DHT22;48278;52.704;6.536;2023-02-07T00:32:30;0.30;99.90
58339;DHT22;48278;52.704;6.536;2023-02-07T00:34:56;0.30;99.90
58339;DHT22;48278;52.704;6.536;2023-02-07T00:37:22;0.40;99.90
58339;DHT22;48278;52.704;6.536;2023-02-07T00:39:48;0.40;99.90
58339;DHT22;48278;52.704;6.536;2023-02-07T00:42:14;0.40;99.90
58339;DHT22;48278;52.704;6.536;2023-02-07T00:44:40;0.50;99.90
58339;DHT22;48278;52.704;6.536;2023-02-07T00:47:05;0.50;99.90
58339;DHT22;48278;52.704;6.536;2023-02-07T00:49:31;0.60;99.90
58339;DHT22;48278;52.704;6.536;2023-02-07T00:51:57;0.70;99.90
58339;DHT22;48278;52.704;6.536;2023-02-07T00:54:23;0.60;99.90
58339;DHT22;48278;52.704;6.536;2023-02-07T00:56:48;0.50;99.90
58339;DHT22;48278;52.704;6.536;2023-02-07T00:59:14;0.60;99.90
58339;DHT22;48278;52.704;6.536;2023-02-07T01:01:40;0.60;99.90
58339;DHT22;48278;52.704;6.536;2023-02-07T01:04:05;0.60;99.90
58339;DHT22;48278;52.704;6.536;2023-02-07T01:06:31;0.70;99.90
58339;DHT22;48278;52.704;6.536;2023-02-07T01:08:59;0.70;99.90
58339;DHT22;48278;52.704;6.536;2023-02-07T01:11:26;0.60;99.90
58339;DHT22;48278;52.704;6.536;2023-02-07T01:13:53;0.50;99.90
58339;DHT22;48278;52.704;6.536;2023-02-07T01:16:21;0.50;99.90
58339;DHT22;48278;52.704;6.536;2023-02-07T01:18:47;0.50;99.90
58339;DHT22;48278;52.704;6.536;2023-02-07T01:21:22;0.50;99.90
58339;DHT22;48278;52.704;6.536;2023-02-07T01:23:48;0.50;99.90
58339;DHT22;48278;52.704;6.536;2023-02-07T01:26:13;0.50;99.90
58339;DHT22;48278;52.704;6.536;2023-02-07T01:28:40;0.50;99.90
58339;DHT22;48278;52.704;6.536;2023-02-07T01:31:11;0.50;99.90
58339;DHT22;48278;52.704;6.536;2023-02-07T01:33:37;0.50;99.90
58339;DHT22;48278;52.704;6.536;2023-02-07T01:36:08;0.50;99.90
58339;DHT22;48278;52.704;6.536;2023-02-07T01:38:34;0.40;99.90
58339;DHT22;48278;52.704;6.536;2023-02-07T01:41:00;0.40;99.90
58339;DHT22;48278;52.704;6.536;2023-02-07T01:43:26;0.40;99.90
58339;DHT22;48278;52.704;6.536;2023-02-07T01:45:52;0.40;99.90
58339;DHT22;48278;52.704;6.536;2023-02-07T01:48:24;0.30;99.90
58339;DHT22;48278;52.704;6.536;2023-02-07T01:50:52;0.20;99.90
58339;DHT22;48278;52.704;6.536;2023-02-07T01:53:22;0.20;99.90
58339;DHT22;48278;52.704;6.536;2023-02-07T01:55:51;0.20;99.90
58339;DHT22;48278;52.704;6.536;2023-02-07T01:58:18;0.20;99.90
58339;DHT22;48278;52.704;6.536;2023-02-07T02:00:44;0.10;99.90
58339;DHT22;48278;52.704;6.536;2023-02-07T02:03:10;0.00;99.90
58339;DHT22;48278;52.704;6.536;2023-02-07T02:05:38;0.00;99.90
58339;DHT22;48278;52.704;6.536;2023-02-07T02:08:04;0.00;99.90
58339;DHT22;48278;52.704;6.536;2023-02-07T02:10:56;-0.10;99.90
58339;DHT22;48278;52.704;6.536;2023-02-07T02:13:35;-0.20;99.90
58339;DHT22;48278;52.704;6.536;2023-02-07T02:16:37;-0.30;99.90
58339;DHT22;48278;52.704;6.536;2023-02-07T02:38:01;-0.60;99.90
58339;DHT22;48278;52.704;6.536;2023-02-07T02:41:13;-0.50;99.90
58339;DHT22;48278;52.704;6.536;2023-02-07T02:43:51;-0.60;99.90
58339;DHT22;48278;52.704;6.536;2023-02-07T02:46:23;-0.70;99.90
58339;DHT22;48278;52.704;6.536;2023-02-07T02:48:52;-0.70;99.90
58339;DHT22;48278;52.704;6.536;2023-02-07T02:51:18;-0.80;99.90
58339;DHT22;48278;52.704;6.536;2023-02-07T02:53:54;-0.90;99.90
58339;DHT22;48278;52.704;6.536;2023-02-07T02:56:48;-0.90;99.90
58339;DHT22;48278;52.704;6.536;2023-02-07T03:02:23;-1.00;99.90
58339;DHT22;48278;52.704;6.536;2023-02-07T03:08:03;-1.00;99.90
58339;DHT22;48278;52.704;6.536;2023-02-07T03:10:47;-1.00;99.90
58339;DHT22;48278;52.704;6.536;2023-02-07T03:13:57;-1.00;99.90
58339;DHT22;48278;52.704;6.536;2023-02-07T03:16:33;-1.00;99.90
58339;DHT22;48278;52.704;6.536;2023-02-07T03:19:14;-1.10;99.90
58339;DHT22;48278;52.704;6.536;2023-02-07T03:21:46;-1.20;99.90
58339;DHT22;48278;52.704;6.536;2023-02-07T03:24:17;-1.30;99.90
58339;DHT22;48278;52.704;6.536;2023-02-07T03:26:45;-1.30;99.90
58339;DHT22;48278;52.704;6.536;2023-02-07T03:29:11;-1.30;99.90
58339;DHT22;48278;52.704;6.536;2023-02-07T03:31:40;-1.30;99.90
58339;DHT22;48278;52.704;6.536;2023-02-07T03:34:11;-1.30;99.90
58339;DHT22;48278;52.704;6.536;2023-02-07T03:36:48;-1.40;99.90
58339;DHT22;48278;52.704;6.536;2023-02-07T03:39:15;-1.40;99.90
58339;DHT22;48278;52.704;6.536;2023-02-07T03:41:47;-1.40;99.90
58339;DHT22;48278;52.704;6.536;2023-02-07T03:44:15;-1.50;99.90
58339;DHT22;48278;52.704;6.536;2023-02-07T03:46:41;-1.50;99.90
58339;DHT22;48278;52.704;6.536;2023-02-07T03:49:07;-1.40;99.90
58339;DHT22;48278;52.704;6.536;2023-02-07T03:51:34;-1.50;99.90
58339;DHT22;48278;52.704;6.536;2023-02-07T03:54:00;-1.50;99.90
58339;DHT22;48278;52.704;6.536;2023-02-07T03:56:25;-1.50;99.90
58339;DHT22;48278;52.704;6.536;2023-02-07T03:58:51;-1.40;99.90
58339;DHT22;48278;52.704;6.536;2023-02-07T04:01:17;-1.50;99.90
58339;DHT22;48278;52.704;6.536;2023-02-07T04:03:43;-1.50;99.90
58339;DHT22;48278;52.704;6.536;2023-02-07T04:06:08;-1.50;99.90
58339;DHT22;48278;52.704;6.536;2023-02-07T04:08:34;-1.50;99.90
58339;DHT22;48278;52.704;6.536;2023-02-07T04:11:02;-1.50;99.90
58339;DHT22;48278;52.704;6.536;2023-02-07T04:13:29;-1.50;99.90
58339;DHT22;48278;52.704;6.536;2023-02-07T04:15:55;-1.60;99.90
58339;DHT22;48278;52.704;6.536;2023-02-07T04:18:20;-1.70;99.90
58339;DHT22;48278;52.704;6.536;2023-02-07T04:20:47;-1.70;99.90
58339;DHT22;48278;52.704;6.536;2023-02-07T04:23:13;-1.80;99.90
58339;DHT22;48278;52.704;6.536;2023-02-07T04:25:38;-1.70;99.90
58339;DHT22;48278;52.704;6.536;2023-02-07T04:28:04;-1.80;99.90
58339;DHT22;48278;52.704;6.536;2023-02-07T04:30:31;-1.80;99.90
58339;DHT22;48278;52.704;6.536;2023-02-07T04:32:57;-1.80;99.90
58339;DHT22;48278;52.704;6.536;2023-02-07T04:35:23;-1.90;99.90
58339;DHT22;48278;52.704;6.536;2023-02-07T04:37:49;-1.90;99.90
58339;DHT22;48278;52.704;6.536;2023-02-07T04:40:15;-1.90;99.90
58339;DHT22;48278;52.704;6.536;2023-02-07T04:42:41;-1.90;99.90
58339;DHT22;48278;52.704;6.536;2023-02-07T04:45:07;-1.80;99.90
58339;DHT22;48278;52.704;6.536;2023-02-07T04:47:33;-1.90;99.90
58339;DHT22;48278;52.704;6.536;2023-02-07T04:49:58;-1.90;99.90
58339;DHT22;48278;52.704;6.536;2023-02-07T04:52:24;-2.00;99.90
58339;DHT22;48278;52.704;6.536;2023-02-07T04:54:50;-2.00;99.90
58339;DHT22;48278;52.704;6.536;2023-02-07T04:57:15;-2.00;99.90
58339;DHT22;48278;52.704;6.536;2023-02-07T04:59:41;-2.00;99.90
58339;DHT22;48278;52.704;6.536;2023-02-07T05:02:07;-2.00;99.90
58339;DHT22;48278;52.704;6.536;2023-02-07T05:04:32;-2.00;99.90
58339;DHT22;48278;52.704;6.536;2023-02-07T05:06:58;-2.10;99.90
58339;DHT22;48278;52.704;6.536;2023-02-07T05:09:24;-2.10;99.90
58339;DHT22;48278;52.704;6.536;2023-02-07T05:11:49;-2.10;99.90
58339;DHT22;48278;52.704;6.536;2023-02-07T05:14:15;-2.00;99.90
58339;DHT22;48278;52.704;6.536;2023-02-07T05:16:41;-2.20;99.90
58339;DHT22;48278;52.704;6.536;2023-02-07T05:19:07;-2.20;99.90
58339;DHT22;48278;52.704;6.536;2023-02-07T05:21:33;-2.20;99.90
58339;DHT22;48278;52.704;6.536;2023-02-07T05:23:58;-2.20;99.90
58339;DHT22;48278;52.704;6.536;2023-02-07T05:26:24;-2.20;99.90
58339;DHT22;48278;52.704;6.536;2023-02-07T05:28:50;-2.20;99.90
58339;DHT22;48278;52.704;6.536;2023-02-07T05:31:16;-2.20;99.90
58339;DHT22;48278;52.704;6.536;2023-02-07T05:33:42;-2.20;99.90
58339;DHT22;48278;52.704;6.536;2023-02-07T05:36:08;-2.30;99.90
58339;DHT22;48278;52.704;6.536;2023-02-07T05:38:34;-2.30;99.90
58339;DHT22;48278;52.704;6.536;2023-02-07T05:40:59;-2.30;99.90
58339;DHT22;48278;52.704;6.536;2023-02-07T05:43:25;-2.30;99.90
58339;DHT22;48278;52.704;6.536;2023-02-07T05:45:51;-2.30;99.90
58339;DHT22;48278;52.704;6.536;2023-02-07T05:48:17;-2.40;99.90
58339;DHT22;48278;52.704;6.536;2023-02-07T05:50:43;-2.30;99.90
58339;DHT22;48278;52.704;6.536;2023-02-07T05:53:09;-2.30;99.90
58339;DHT22;48278;52.704;6.536;2023-02-07T05:55:35;-2.30;99.90
58339;DHT22;48278;52.704;6.536;2023-02-07T05:58:01;-2.30;99.90
58339;DHT22;48278;52.704;6.536;2023-02-07T06:00:27;-2.30;99.90
58339;DHT22;48278;52.704;6.536;2023-02-07T06:02:52;-2.30;99.90
58339;DHT22;48278;52.704;6.536;2023-02-07T06:05:18;-2.30;99.90
58339;DHT22;48278;52.704;6.536;2023-02-07T06:07:45;-2.40;99.90
58339;DHT22;48278;52.704;6.536;2023-02-07T06:10:11;-2.40;99.90
58339;DHT22;48278;52.704;6.536;2023-02-07T06:12:37;-2.40;99.90
58339;DHT22;48278;52.704;6.536;2023-02-07T06:15:03;-2.30;99.90
58339;DHT22;48278;52.704;6.536;2023-02-07T06:17:29;-2.40;99.90
58339;DHT22;48278;52.704;6.536;2023-02-07T06:19:55;-2.40;99.90
58339;DHT22;48278;52.704;6.536;2023-02-07T06:22:20;-2.40;99.90
58339;DHT22;48278;52.704;6.536;2023-02-07T06:24:46;-2.40;99.90
58339;DHT22;48278;52.704;6.536;2023-02-07T06:27:12;-2.50;99.90
58339;DHT22;48278;52.704;6.536;2023-02-07T06:29:38;-2.40;99.90
58339;DHT22;48278;52.704;6.536;2023-02-07T06:32:04;-2.40;99.90
58339;DHT22;48278;52.704;6.536;2023-02-07T06:34:29;-2.50;99.90
58339;DHT22;48278;52.704;6.536;2023-02-07T06:36:55;-2.50;99.90
58339;DHT22;48278;52.704;6.536;2023-02-07T06:39:21;-2.50;99.90
58339;DHT22;48278;52.704;6.536;2023-02-07T06:41:47;-2.50;99.90
58339;DHT22;48278;52.704;6.536;2023-02-07T06:44:12;-2.50;99.90
58339;DHT22;48278;52.704;6.536;2023-02-07T06:46:38;-2.60;99.90
58339;DHT22;48278;52.704;6.536;2023-02-07T06:49:04;-2.50;99.90
58339;DHT22;48278;52.704;6.536;2023-02-07T06:51:30;-2.50;99.90
58339;DHT22;48278;52.704;6.536;2023-02-07T06:53:56;-2.50;99.90
58339;DHT22;48278;52.704;6.536;2023-02-07T06:56:21;-2.50;99.90
58339;DHT22;48278;52.704;6.536;2023-02-07T06:58:47;-2.50;99.90
58339;DHT22;48278;52.704;6.536;2023-02-07T07:01:13;-2.50;99.90
58339;DHT22;48278;52.704;6.536;2023-02-07T07:03:45;-2.00;99.90
58339;DHT22;48278;52.704;6.536;2023-02-07T07:06:11;-2.10;99.90
58339;DHT22;48278;52.704;6.536;2023-02-07T07:08:36;-2.20;99.90
58339;DHT22;48278;52.704;6.536;2023-02-07T07:11:02;-2.20;99.90
58339;DHT22;48278;52.704;6.536;2023-02-07T07:13:28;-2.30;99.90
58339;DHT22;48278;52.704;6.536;2023-02-07T07:15:53;-2.30;99.90
58339;DHT22;48278;52.704;6.536;2023-02-07T07:18:19;-2.30;99.90
58339;DHT22;48278;52.704;6.536;2023-02-07T07:20:45;-2.30;99.90
58339;DHT22;48278;52.704;6.536;2023-02-07T07:23:11;-2.20;99.90
58339;DHT22;48278;52.704;6.536;2023-02-07T07:25:36;-2.20;99.90
58339;DHT22;48278;52.704;6.536;2023-02-07T07:28:02;-2.10;99.90
58339;DHT22;48278;52.704;6.536;2023-02-07T07:30:28;-2.00;99.90
58339;DHT22;48278;52.704;6.536;2023-02-07T07:32:54;-2.00;99.90
58339;DHT22;48278;52.704;6.536;2023-02-07T07:35:20;-2.00;99.90
58339;DHT22;48278;52.704;6.536;2023-02-07T07:37:45;-2.00;99.90
58339;DHT22;48278;52.704;6.536;2023-02-07T07:40:11;-1.90;99.90
58339;DHT22;48278;52.704;6.536;2023-02-07T07:42:37;-1.90;99.90
58339;DHT22;48278;52.704;6.536;2023-02-07T07:45:03;-1.90;99.90
58339;DHT22;48278;52.704;6.536;2023-02-07T07:47:29;-1.80;99.90
58339;DHT22;48278;52.704;6.536;2023-02-07T07:49:55;-1.70;99.90
58339;DHT22;48278;52.704;6.536;2023-02-07T07:52:20;-1.60;99.90
58339;DHT22;48278;52.704;6.536;2023-02-07T07:54:46;-1.70;99.90
58339;DHT22;48278;52.704;6.536;2023-02-07T07:57:12;-1.60;99.90
58339;DHT22;48278;52.704;6.536;2023-02-07T07:59:37;-1.60;99.90
58339;DHT22;48278;52.704;6.536;2023-02-07T08:02:03;-1.50;99.90
58339;DHT22;48278;52.704;6.536;2023-02-07T08:04:29;-1.50;99.90
58339;DHT22;48278;52.704;6.536;2023-02-07T08:06:55;-1.50;99.90
58339;DHT22;48278;52.704;6.536;2023-02-07T08:09:22;-1.50;99.90
58339;DHT22;48278;52.704;6.536;2023-02-07T08:11:47;-1.40;99.90
58339;DHT22;48278;52.704;6.536;2023-02-07T08:14:13;-1.30;99.90
58339;DHT22;48278;52.704;6.536;2023-02-07T08:16:39;-1.20;99.90
58339;DHT22;48278;52.704;6.536;2023-02-07T08:19:04;-1.30;99.90
58339;DHT22;48278;52.704;6.536;2023-02-07T08:21:30;-1.20;99.90
58339;DHT22;48278;52.704;6.536;2023-02-07T08:23:56;-1.20;99.90
58339;DHT22;48278;52.704;6.536;2023-02-07T08:26:22;-1.10;99.90
58339;DHT22;48278;52.704;6.536;2023-02-07T08:28:48;-1.00;99.90
58339;DHT22;48278;52.704;6.536;2023-02-07T08:31:17;-0.90;99.90
58339;DHT22;48278;52.704;6.536;2023-02-07T08:33:42;-0.80;99.90
58339;DHT22;48278;52.704;6.536;2023-02-07T08:36:09;-0.80;99.90
58339;DHT22;48278;52.704;6.536;2023-02-07T08:38:36;-0.80;99.90
58339;DHT22;48278;52.704;6.536;2023-02-07T08:41:02;-0.70;99.90
58339;DHT22;48278;52.704;6.536;2023-02-07T08:43:28;-0.70;99.90
58339;DHT22;48278;52.704;6.536;2023-02-07T08:45:54;-0.60;99.90
58339;DHT22;48278;52.704;6.536;2023-02-07T08:48:19;-0.60;99.90
58339;DHT22;48278;52.704;6.536;2023-02-07T08:50:45;-0.60;99.90
58339;DHT22;48278;52.704;6.536;2023-02-07T08:53:11;-0.40;99.90
58339;DHT22;48278;52.704;6.536;2023-02-07T08:55:39;-0.40;99.90
58339;DHT22;48278;52.704;6.536;2023-02-07T08:58:06;-0.30;99.90
58339;DHT22;48278;52.704;6.536;2023-02-07T09:00:32;-0.20;99.90
58339;DHT22;48278;52.704;6.536;2023-02-07T09:03:00;-0.30;99.90
58339;DHT22;48278;52.704;6.536;2023-02-07T09:05:27;-0.20;99.90
58339;DHT22;48278;52.704;6.536;2023-02-07T09:07:52;-0.20;99.90
58339;DHT22;48278;52.704;6.536;2023-02-07T09:10:18;-0.20;99.90
58339;DHT22;48278;52.704;6.536;2023-02-07T09:12:44;-0.20;99.90
58339;DHT22;48278;52.704;6.536;2023-02-07T09:15:10;-0.20;99.90
58339;DHT22;48278;52.704;6.536;2023-02-07T09:17:35;-0.20;99.90
58339;DHT22;48278;52.704;6.536;2023-02-07T09:20:02;-0.10;99.90
58339;DHT22;48278;52.704;6.536;2023-02-07T09:22:28;-0.10;99.90
58339;DHT22;48278;52.704;6.536;2023-02-07T09:24:56;0.00;99.90
58339;DHT22;48278;52.704;6.536;2023-02-07T09:27:21;-0.10;99.90
58339;DHT22;48278;52.704;6.536;2023-02-07T09:29:47;0.00;99.90
58339;DHT22;48278;52.704;6.536;2023-02-07T09:32:13;0.00;99.90
58339;DHT22;48278;52.704;6.536;2023-02-07T09:34:39;0.00;99.90
58339;DHT22;48278;52.704;6.536;2023-02-07T09:37:04;0.00;99.90
58339;DHT22;48278;52.704;6.536;2023-02-07T09:39:31;0.10;99.90
58339;DHT22;48278;52.704;6.536;2023-02-07T09:45:11;0.20;99.90
58339;DHT22;48278;52.704;6.536;2023-02-07T09:47:40;0.30;99.90
58339;DHT22;48278;52.704;6.536;2023-02-07T09:50:12;0.20;99.90
58339;DHT22;48278;52.704;6.536;2023-02-07T09:52:57;0.20;99.90
58339;DHT22;48278;52.704;6.536;2023-02-07T09:55:51;0.30;99.90
58339;DHT22;48278;52.704;6.536;2023-02-07T10:01:23;0.40;99.90
58339;DHT22;48278;52.704;6.536;2023-02-07T10:06:40;0.40;99.90
58339;DHT22;48278;52.704;6.536;2023-02-07T10:09:13;0.50;99.90
58339;DHT22;48278;52.704;6.536;2023-02-07T10:22:47;0.90;99.90
58339;DHT22;48278;52.704;6.536;2023-02-07T10:30:35;1.00;99.90
58339;DHT22;48278;52.704;6.536;2023-02-07T10:33:17;1.10;99.90
58339;DHT22;48278;52.704;6.536;2023-02-07T10:35:45;1.30;99.90
58339;DHT22;48278;52.704;6.536;2023-02-07T10:38:37;1.30;99.90
58339;DHT22;48278;52.704;6.536;2023-02-07T10:41:21;1.30;99.90
58339;DHT22;48278;52.704;6.536;2023-02-07T10:43:50;1.40;99.90
58339;DHT22;48278;52.704;6.536;2023-02-07T10:46:18;1.40;99.90
58339;DHT22;48278;52.704;6.536;2023-02-07T10:48:45;1.40;99.90
58339;DHT22;48278;52.704;6.536;2023-02-07T10:54:09;1.50;99.90
58339;DHT22;48278;52.704;6.536;2023-02-07T10:56:43;1.50;99.90
58339;DHT22;48278;52.704;6.536;2023-02-07T11:01:54;1.60;99.90
58339;DHT22;48278;52.704;6.536;2023-02-07T11:04:38;1.60;99.90
58339;DHT22;48278;52.704;6.536;2023-02-07T11:07:06;1.70;99.90
58339;DHT22;48278;52.704;6.536;2023-02-07T11:09:38;1.70;99.90
58339;DHT22;48278;52.704;6.536;2023-02-07T11:12:21;1.80;99.90
58339;DHT22;48278;52.704;6.536;2023-02-07T11:15:00;1.90;99.90
58339;DHT22;48278;52.704;6.536;2023-02-07T11:17:26;2.00;99.90
58339;DHT22;48278;52.704;6.536;2023-02-07T11:19:52;1.90;99.90
58339;DHT22;48278;52.704;6.536;2023-02-07T11:22:21;2.00;99.90
58339;DHT22;48278;52.704;6.536;2023-02-07T11:24:47;2.00;99.90
58339;DHT22;48278;52.704;6.536;2023-02-07T11:27:15;2.00;99.90
58339;DHT22;48278;52.704;6.536;2023-02-07T11:29:47;2.10;99.90
58339;DHT22;48278;52.704;6.536;2023-02-07T11:32:14;2.10;99.90
58339;DHT22;48278;52.704;6.536;2023-02-07T11:34:47;2.10;99.90
58339;DHT22;48278;52.704;6.536;2023-02-07T11:37:26;2.20;99.90
58339;DHT22;48278;52.704;6.536;2023-02-07T11:42:38;2.30;99.90
58339;DHT22;48278;52.704;6.536;2023-02-07T11:45:04;2.30;99.90
58339;DHT22;48278;52.704;6.536;2023-02-07T11:47:31;2.30;99.90
58339;DHT22;48278;52.704;6.536;2023-02-07T11:49:59;2.40;99.90
58339;DHT22;48278;52.704;6.536;2023-02-07T11:52:27;2.40;99.90
58339;DHT22;48278;52.704;6.536;2023-02-07T11:54:58;2.50;99.90
58339;DHT22;48278;52.704;6.536;2023-02-07T11:57:28;2.50;99.90
58339;DHT22;48278;52.704;6.536;2023-02-07T12:00:06;2.60;99.90
58339;DHT22;48278;52.704;6.536;2023-02-07T12:02:38;2.70;99.90
58339;DHT22;48278;52.704;6.536;2023-02-07T12:05:24;2.70;99.90
58339;DHT22;48278;52.704;6.536;2023-02-07T12:07:53;2.70;99.90
58339;DHT22;48278;52.704;6.536;2023-02-07T12:10:24;2.70;99.90
58339;DHT22;48278;52.704;6.536;2023-02-07T12:21:23;2.80;99.90
58339;DHT22;48278;52.704;6.536;2023-02-07T12:24:16;2.90;99.90
58339;DHT22;48278;52.704;6.536;2023-02-07T12:38:23;3.00;99.90
58339;DHT22;48278;52.704;6.536;2023-02-07T12:41:01;3.20;99.90
58339;DHT22;48278;52.704;6.536;2023-02-07T12:43:38;3.10;99.90
58339;DHT22;48278;52.704;6.536;2023-02-07T12:47:04;3.10;99.90
58339;DHT22;48278;52.704;6.536;2023-02-07T12:57:23;3.20;99.90
58339;DHT22;48278;52.704;6.536;2023-02-07T13:21:34;3.40;99.90
58339;DHT22;48278;52.704;6.536;2023-02-07T13:24:06;3.40;99.90
58339;DHT22;48278;52.704;6.536;2023-02-07T13:26:34;3.40;99.90
58339;DHT22;48278;52.704;6.536;2023-02-07T13:29:10;3.40;99.90
58339;DHT22;48278;52.704;6.536;2023-02-07T13:34:20;3.50;99.90
58339;DHT22;48278;52.704;6.536;2023-02-07T13:36:48;3.50;99.90
58339;DHT22;48278;52.704;6.536;2023-02-07T13:39:45;3.50;99.90
58339;DHT22;48278;52.704;6.536;2023-02-07T13:42:37;3.50;99.90
58339;DHT22;48278;52.704;6.536;2023-02-07T13:47:49;3.60;99.90
58339;DHT22;48278;52.704;6.536;2023-02-07T13:50:26;3.50;99.90
58339;DHT22;48278;52.704;6.536;2023-02-07T13:53:20;3.50;99.90
58339;DHT22;48278;52.704;6.536;2023-02-07T13:55:49;3.50;99.90
58339;DHT22;48278;52.704;6.536;2023-02-07T14:01:32;3.60;99.90
58339;DHT22;48278;52.704;6.536;2023-02-07T14:04:09;3.60;99.90
58339;DHT22;48278;52.704;6.536;2023-02-07T14:06:43;3.60;99.90
58339;DHT22;48278;52.704;6.536;2023-02-07T14:11:57;3.60;99.90
58339;DHT22;48278;52.704;6.536;2023-02-07T14:14:36;3.60;99.90
58339;DHT22;48278;52.704;6.536;2023-02-07T14:24:51;3.50;99.90
58339;DHT22;48278;52.704;6.536;2023-02-07T14:28:05;3.50;99.90
58339;DHT22;48278;52.704;6.536;2023-02-07T14:30:35;3.50;99.90
58339;DHT22;48278;52.704;6.536;2023-02-07T14:33:15;3.50;99.90
58339;DHT22;48278;52.704;6.536;2023-02-07T14:38:37;3.40;99.90
58339;DHT22;48278;52.704;6.536;2023-02-07T14:41:10;3.60;99.90
58339;DHT22;48278;52.704;6.536;2023-02-07T14:43:47;3.60;99.90
58339;DHT22;48278;52.704;6.536;2023-02-07T14:46:17;3.50;99.90
58339;DHT22;48278;52.704;6.536;2023-02-07T14:54:26;3.40;99.90
58339;DHT22;48278;52.704;6.536;2023-02-07T14:59:35;3.40;99.90
58339;DHT22;48278;52.704;6.536;2023-02-07T15:05:28;3.40;99.90
58339;DHT22;48278;52.704;6.536;2023-02-07T15:10:29;3.30;99.90
58339;DHT22;48278;52.704;6.536;2023-02-07T15:12:55;3.30;99.90
58339;DHT22;48278;52.704;6.536;2023-02-07T15:15:25;3.30;99.90
58339;DHT22;48278;52.704;6.536;2023-02-07T15:17:53;3.30;99.90
58339;DHT22;48278;52.704;6.536;2023-02-07T15:20:26;3.20;99.90
58339;DHT22;48278;52.704;6.536;2023-02-07T15:22:54;3.20;99.90
58339;DHT22;48278;52.704;6.536;2023-02-07T15:25:20;3.20;99.90
58339;DHT22;48278;52.704;6.536;2023-02-07T15:28:05;3.20;99.90
58339;DHT22;48278;52.704;6.536;2023-02-07T15:30:31;3.20;99.90
58339;DHT22;48278;52.704;6.536;2023-02-07T15:32:58;3.20;99.90
58339;DHT22;48278;52.704;6.536;2023-02-07T15:35:27;3.20;99.90
58339;DHT22;48278;52.704;6.536;2023-02-07T15:38:11;3.30;99.90
58339;DHT22;48278;52.704;6.536;2023-02-07T15:40:37;3.20;99.90
58339;DHT22;48278;52.704;6.536;2023-02-07T15:43:04;3.20;99.90
58339;DHT22;48278;52.704;6.536;2023-02-07T15:45:31;3.10;99.90
58339;DHT22;48278;52.704;6.536;2023-02-07T15:48:13;3.20;99.90
58339;DHT22;48278;52.704;6.536;2023-02-07T15:50:39;3.10;99.90
58339;DHT22;48278;52.704;6.536;2023-02-07T15:53:05;3.00;99.90
58339;DHT22;48278;52.704;6.536;2023-02-07T15:55:34;3.00;99.90
58339;DHT22;48278;52.704;6.536;2023-02-07T15:58:01;3.00;99.90
58339;DHT22;48278;52.704;6.536;2023-02-07T16:00:28;2.80;99.90
58339;DHT22;48278;52.704;6.536;2023-02-07T16:03:03;2.80;99.90
58339;DHT22;48278;52.704;6.536;2023-02-07T16:05:37;2.80;99.90
58339;DHT22;48278;52.704;6.536;2023-02-07T16:08:35;2.80;99.90
58339;DHT22;48278;52.704;6.536;2023-02-07T16:13:59;2.80;99.90
58339;DHT22;48278;52.704;6.536;2023-02-07T16:16:28;2.80;99.90
58339;DHT22;48278;52.704;6.536;2023-02-07T16:19:26;2.70;99.90
58339;DHT22;48278;52.704;6.536;2023-02-07T16:22:03;2.70;99.90
58339;DHT22;48278;52.704;6.536;2023-02-07T16:24:33;2.60;99.90
58339;DHT22;48278;52.704;6.536;2023-02-07T16:26:59;2.60;99.90
58339;DHT22;48278;52.704;6.536;2023-02-07T16:29:25;2.40;99.90
58339;DHT22;48278;52.704;6.536;2023-02-07T16:31:52;2.30;99.90
58339;DHT22;48278;52.704;6.536;2023-02-07T16:34:19;2.20;99.90
58339;DHT22;48278;52.704;6.536;2023-02-07T16:36:52;2.10;99.90
58339;DHT22;48278;52.704;6.536;2023-02-07T16:39:19;2.10;99.90
58339;DHT22;48278;52.704;6.536;2023-02-07T16:41:47;2.00;99.90
58339;DHT22;48278;52.704;6.536;2023-02-07T16:44:17;1.90;99.90
58339;DHT22;48278;52.704;6.536;2023-02-07T16:46:44;2.00;99.90
58339;DHT22;48278;52.704;6.536;2023-02-07T16:49:14;1.80;99.90
58339;DHT22;48278;52.704;6.536;2023-02-07T16:51:40;1.70;99.90
58339;DHT22;48278;52.704;6.536;2023-02-07T16:54:06;1.60;99.90
58339;DHT22;48278;52.704;6.536;2023-02-07T16:56:32;1.60;99.90
58339;DHT22;48278;52.704;6.536;2023-02-07T16:58:58;1.50;99.90
58339;DHT22;48278;52.704;6.536;2023-02-07T17:01:23;1.50;99.90
58339;DHT22;48278;52.704;6.536;2023-02-07T17:03:49;1.40;99.90
58339;DHT22;48278;52.704;6.536;2023-02-07T17:06:17;1.40;99.90
58339;DHT22;48278;52.704;6.536;2023-02-07T17:08:43;1.30;99.90
58339;DHT22;48278;52.704;6.536;2023-02-07T17:11:14;1.30;99.90
58339;DHT22;48278;52.704;6.536;2023-02-07T17:13:42;1.20;99.90
58339;DHT22;48278;52.704;6.536;2023-02-07T17:16:11;1.10;99.90
58339;DHT22;48278;52.704;6.536;2023-02-07T17:18:38;1.10;99.90
58339;DHT22;48278;52.704;6.536;2023-02-07T17:21:04;1.10;99.90
58339;DHT22;48278;52.704;6.536;2023-02-07T17:23:30;1.00;99.90
58339;DHT22;48278;52.704;6.536;2023-02-07T17:25:56;0.90;99.90
58339;DHT22;48278;52.704;6.536;2023-02-07T17:28:22;0.90;99.90
58339;DHT22;48278;52.704;6.536;2023-02-07T17:30:48;0.90;99.90
58339;DHT22;48278;52.704;6.536;2023-02-07T17:33:14;0.90;99.90
58339;DHT22;48278;52.704;6.536;2023-02-07T17:35:41;0.80;99.90
58339;DHT22;48278;52.704;6.536;2023-02-07T17:38:07;0.80;99.90
58339;DHT22;48278;52.704;6.536;2023-02-07T17:40:36;0.70;99.90
58339;DHT22;48278;52.704;6.536;2023-02-07T17:43:03;0.60;99.90
58339;DHT22;48278;52.704;6.536;2023-02-07T17:45:29;0.70;99.90
58339;DHT22;48278;52.704;6.536;2023-02-07T17:47:55;0.60;99.90
58339;DHT22;48278;52.704;6.536;2023-02-07T17:52:55;0.60;99.90
58339;DHT22;48278;52.704;6.536;2023-02-07T17:55:21;0.50;99.90
58339;DHT22;48278;52.704;6.536;2023-02-07T17:57:47;0.40;99.90
58339;DHT22;48278;52.704;6.536;2023-02-07T18:00:23;0.40;99.90
58339;DHT22;48278;52.704;6.536;2023-02-07T18:02:49;0.30;99.90
58339;DHT22;48278;52.704;6.536;2023-02-07T18:05:16;0.30;99.90
58339;DHT22;48278;52.704;6.536;2023-02-07T18:07:44;0.20;99.90
58339;DHT22;48278;52.704;6.536;2023-02-07T18:10:10;0.10;99.90
58339;DHT22;48278;52.704;6.536;2023-02-07T18:12:37;0.10;99.90
58339;DHT22;48278;52.704;6.536;2023-02-07T18:15:03;0.00;99.90
58339;DHT22;48278;52.704;6.536;2023-02-07T18:17:29;0.00;99.90
58339;DHT22;48278;52.704;6.536;2023-02-07T18:19:55;-0.10;99.90
58339;DHT22;48278;52.704;6.536;2023-02-07T18:22:21;-0.10;99.90